Trimont, MN (56176)

7:16 AM CST on February 08, 2016 (GMT -0600)
NuWay Coop - Ormsby | | Change Station
CLOSE
Current Station
Personal Weather Station
Location: Ormsby, MN
Elevation: 1187 ft
Nearby Weather Stations
Active Advisory: Blizzard Warning Active Notice: Local Storm Report

Elev 1187 ft 43.85 °N, 94.70 °W | Updated 14 minutes ago

Snow
Snow
12.3 °F
Feels Like -11 °F
N
36.0
Wind Variable Wind from WNW
Gusts 46.0 mph

Today
High -- | Low -- °F
--% Chance of Precip.
Yesterday
High -- | Low -- °F
Precip. -- in
Pressure 29.91 in
Visibility -9999.0 miles
Clouds Mostly Cloudy 400 ft
Overcast 1100 ft
Windchill -11 °F
Dew Point 10 °F
Humidity 91%
Rainfall 0.00 in
Snow Depth Not available.
7:27 AM 5:38 PM
Waning Crescent, 0% visible
METAR KMJQ 081252Z AUTO 33026G31KT BKN004 OVC011 M10/M12 A2991 RMK AO2 PWINO
Pressure 29.91 in
Visibility -9999.0 miles
Clouds Mostly Cloudy 400 ft
Overcast 1100 ft
Windchill -11 °F
Dew Point 10 °F
Humidity 91%
Rainfall 0.00 in
Snow Depth Not available.
7:27 AM 5:38 PM
Waning Crescent, 0% visible
METAR KMJQ 081252Z AUTO 33026G31KT BKN004 OVC011 M10/M12 A2991 RMK AO2 PWINO

10-Day Weather Forecast

Almanac

Astronomy

Feb. 08, 2016 Rise Set
Actual Time
Civil Twilight
Nautical Twilight
Astronomical Twilight
Moon
Length of Visible Light
Length of Day
Tomorrow will be .
, % of the Moon is Illuminated

Today's Extremes

State Highs State Lows

Community

WunderPhotos

Upload Photos

1,891,434 photos uploaded!

WunderBlog® & News

Nearby

Air Quality

  Air Quality AQ Index Pollutant
Not available.

Snow Depth

Station Depth Elevation

Earthquake Activity

City Distance Mag. Time & Date
Minimum magnitude displayed is 2.5.

Coastal Water Temperatures

Place Temperature

Stations

Nearby Weather Stations

Station Location Temp. Windchill Dew Point Humidity Wind Precip. Elev Updated Type
                   

Watches & Warnings

Blizzard Warning
Issued: 3:47 AM CST Feb. 8, 2016 – National Weather Service

... Blizzard Warning remains in effect until noon CST today...

* blizzard conditions are expected to diminish around noon today.

* Winds gusting as high as 40 mph will cause whiteout conditions
in blowing snow.

* Additional snow accumulations of less than in inch expected.

* Travel will be very difficult through the morning commute today.

Precautionary/preparedness actions...

A Blizzard Warning means falling and blowing snow with strong
winds and poor visibilities will lead to whiteout
conditions... making travel extremely dangerous. If you must
travel... have a winter survival kit with you. If you get
stranded... stay with your vehicle. The latest Road conditions for
the state you are calling from can be obtained by calling 5 1 1.